Time;durP1;ratioP1;P1;durP2;ratioP2;P2;SDS_P1;SDS_P2;PMS_P1;PMS_P2;Temp;Humidity;BMP_temperature;BMP_pressure;BME280_temperature;BME280_humidity;BME280_pressure;Samples;Min_cycle;Max_cycle;Signal;HPM_P1;HPM_P2
2022/05/24 00:01:52;;;;;;;17.60;11.78;;;;;;;9.28;71.61;99872.47;1799580;79;25668;-78
2022/05/24 00:04:19;;;;;;;18.23;11.88;;;;;;;9.25;71.82;99859.59;1799538;79;25747;-77
2022/05/24 00:06:46;;;;;;;18.98;12.23;;;;;;;9.25;71.87;99862.84;1799488;79;27451;-76
2022/05/24 00:09:12;;;;;;;17.80;11.83;;;;;;;9.22;72.27;99863.46;1800793;79;25408;-77
2022/05/24 00:11:39;;;;;;;17.25;11.38;;;;;;;9.20;72.25;99859.72;1800971;79;25404;-77
2022/05/24 00:14:05;;;;;;;18.95;11.40;;;;;;;9.19;72.05;99862.16;1800922;79;26095;-77
2022/05/24 00:16:31;;;;;;;15.45;10.72;;;;;;;9.15;71.86;99863.34;1800997;79;25436;-77
2022/05/24 00:18:58;;;;;;;20.37;11.38;;;;;;;9.12;72.02;99862.61;1801031;79;27944;-78
2022/05/24 00:21:24;;;;;;;15.30;10.03;;;;;;;9.10;72.18;99862.13;1800910;79;25644;-77
2022/05/24 00:23:50;;;;;;;16.42;11.43;;;;;;;9.08;72.22;99860.86;1801006;79;25529;-77
2022/05/24 00:26:25;;;;;;;18.07;11.97;;;;;;;9.05;72.34;99857.42;1800933;79;25552;-77
2022/05/24 00:28:51;;;;;;;21.27;10.78;;;;;;;9.03;72.62;99846.15;1796291;79;25654;-77
2022/05/24 00:31:17;;;;;;;15.60;10.50;;;;;;;9.00;72.47;99850.80;1800994;79;27540;-78
2022/05/24 00:33:43;;;;;;;12.70;9.60;;;;;;;9.00;72.47;99850.80;1800897;79;25605;-79
2022/05/24 00:36:10;;;;;;;14.85;10.10;;;;;;;8.97;72.63;99846.28;1801004;79;25395;-78
2022/05/24 00:38:38;;;;;;;19.27;11.20;;;;;;;8.95;72.76;99843.06;1801230;79;26064;-79
2022/05/24 00:41:13;;;;;;;15.93;10.50;;;;;;;8.94;72.87;99842.05;1801161;79;25573;-78
2022/05/24 00:43:54;;;;;;;14.05;9.78;;;;;;;8.93;72.89;99845.28;1797882;79;28174;-78
2022/05/24 00:46:34;;;;;;;12.15;9.70;;;;;;;8.92;72.93;99849.63;1800204;79;25404;-78
2022/05/24 00:49:08;;;;;;;13.40;9.98;;;;;;;8.91;72.97;99856.16;1800774;79;25559;-78
2022/05/24 00:51:39;;;;;;;13.32;10.28;;;;;;;8.89;72.95;99856.45;1800939;79;25537;-77
2022/05/24 00:54:06;;;;;;;13.50;10.13;;;;;;;8.87;73.07;99850.58;1800249;79;25647;-77
2022/05/24 00:57:11;;;;;;;11.70;9.15;;;;;;;8.85;73.17;99851.42;1800900;79;27494;-77
2022/05/24 00:59:49;;;;;;;13.13;10.08;;;;;;;8.83;73.34;99849.59;1800830;79;25591;-78
2022/05/24 01:02:15;;;;;;;14.18;10.18;;;;;;;8.82;73.39;99843.15;1800179;79;25451;-78
2022/05/24 01:04:42;;;;;;;13.90;9.73;;;;;;;8.79;73.06;99839.97;1801014;79;25481;-79
2022/05/24 01:07:09;;;;;;;15.18;10.20;;;;;;;8.77;73.29;99839.48;1801070;79;25635;-79
2022/05/24 01:09:56;;;;;;;15.68;9.78;;;;;;;8.76;73.43;99842.48;1801041;79;27641;-79
2022/05/24 01:12:33;;;;;;;14.60;9.13;;;;;;;8.73;73.43;99837.70;1800945;79;25617;-76
2022/05/24 01:15:04;;;;;;;13.05;9.63;;;;;;;8.70;73.22;99841.83;1801112;79;25410;-77
2022/05/24 01:17:31;;;;;;;14.90;9.98;;;;;;;8.68;73.33;99844.02;1801225;79;25511;-77
2022/05/24 01:19:59;;;;;;;13.48;9.48;;;;;;;8.66;73.43;99847.57;1801402;79;25396;-77
2022/05/24 01:22:57;;;;;;;12.05;9.88;;;;;;;8.63;73.49;99840.09;1801384;79;27528;-77
2022/05/24 01:26:01;;;;;;;14.93;9.50;;;;;;;8.61;73.49;99840.95;1801729;79;25653;-76
2022/05/24 01:28:35;;;;;;;14.93;10.18;;;;;;;8.58;73.61;99840.21;1794452;79;25388;-76
2022/05/24 01:31:03;;;;;;;14.73;9.83;;;;;;;8.55;73.74;99836.80;1801003;79;25549;-76
2022/05/24 01:36:19;;;;;;;13.85;9.15;;;;;;;8.51;73.87;99830.41;1800875;79;27651;-77
2022/05/24 01:38:52;;;;;;;11.97;10.00;;;;;;;8.49;73.79;99834.77;1800794;79;25665;-78
2022/05/24 01:41:42;;;;;;;17.30;9.48;;;;;;;8.48;74.05;99839.92;1800894;79;25760;-77
2022/05/24 01:44:12;;;;;;;12.95;9.63;;;;;;;8.45;73.96;99836.48;1800787;79;25610;-78
2022/05/24 01:46:44;;;;;;;11.93;9.58;;;;;;;8.43;74.52;99836.53;1801096;79;32724;-76
2022/05/24 01:49:28;;;;;;;11.68;8.58;;;;;;;8.40;74.11;99840.06;1773242;79;27708;-78
2022/05/24 01:52:03;;;;;;;14.43;9.70;;;;;;;8.39;74.64;99837.66;1799531;79;25403;-78
2022/05/24 01:54:34;;;;;;;14.80;9.73;;;;;;;8.38;74.59;99834.74;1800938;79;25631;-77
2022/05/24 01:57:12;;;;;;;12.82;9.75;;;;;;;8.36;74.64;99833.70;1800837;79;25427;-77
2022/05/24 01:59:41;;;;;;;13.65;9.50;;;;;;;8.35;74.44;99834.78;1799522;79;25419;-77
2022/05/24 02:02:08;;;;;;;11.75;9.43;;;;;;;8.33;74.53;99828.91;1800936;79;27460;-77
2022/05/24 02:04:35;;;;;;;14.83;9.08;;;;;;;8.32;74.60;99830.56;1800790;79;25597;-77
2022/05/24 02:07:09;;;;;;;13.40;9.50;;;;;;;8.30;74.42;99828.73;1800865;79;25525;-77
2022/05/24 02:09:41;;;;;;;11.65;8.85;;;;;;;8.28;74.33;99830.94;1800943;79;25466;-77
2022/05/24 02:12:33;;;;;;;11.60;9.50;;;;;;;8.25;74.57;99830.98;1800491;79;25634;-77
2022/05/24 02:15:11;;;;;;;11.83;9.63;;;;;;;8.24;74.79;99834.80;1800850;79;27548;-76
2022/05/24 02:18:04;;;;;;;12.93;9.75;;;;;;;8.22;75.02;99828.89;1800804;79;25623;-76
2022/05/24 02:20:34;;;;;;;14.20;9.50;;;;;;;8.20;74.90;99821.11;1800905;79;25446;-77
2022/05/24 02:23:01;;;;;;;13.53;9.80;;;;;;;8.17;75.22;99818.23;1800955;79;26007;-78
2022/05/24 02:25:45;;;;;;;13.18;9.65;;;;;;;8.14;75.20;99814.79;1800898;79;25637;-77
2022/05/24 02:28:14;;;;;;;12.13;9.08;;;;;;;8.13;75.10;99826.13;1800896;79;28207;-76
2022/05/24 02:30:45;;;;;;;14.23;9.20;;;;;;;8.09;75.15;99831.88;1800888;79;25404;-76
2022/05/24 02:33:12;;;;;;;11.60;9.90;;;;;;;8.08;75.51;99828.14;1800859;79;25580;-75
2022/05/24 02:35:38;;;;;;;10.38;9.03;;;;;;;8.05;75.50;99824.14;1800807;79;25542;-76
2022/05/24 02:38:06;;;;;;;10.63;9.03;;;;;;;8.05;75.42;99820.10;1800852;79;25619;-76
2022/05/24 02:43:18;;;;;;;17.40;9.95;;;;;;;8.02;75.62;99816.69;1800760;79;26007;-77
2022/05/24 02:45:44;;;;;;;13.70;9.63;;;;;;;8.01;75.81;99815.88;1800773;79;25320;-78
2022/05/24 02:48:10;;;;;;;12.13;9.45;;;;;;;8.00;75.72;99807.56;1800827;79;25561;-77
2022/05/24 02:50:37;;;;;;;14.25;10.18;;;;;;;8.00;75.77;99809.45;1800097;79;25604;-77
2022/05/24 02:53:03;;;;;;;13.43;9.93;;;;;;;8.00;75.80;99813.48;1800704;79;27518;-78
2022/05/24 02:55:30;;;;;;;14.85;9.48;;;;;;;7.98;75.91;99811.09;1800823;79;25411;-77
2022/05/24 02:57:56;;;;;;;11.93;10.30;;;;;;;7.99;76.04;99814.60;1800960;79;25569;-79
2022/05/24 03:00:26;;;;;;;16.40;10.88;;;;;;;7.99;76.20;99805.96;1800909;79;25533;-78
2022/05/24 03:02:53;;;;;;;11.30;10.20;;;;;;;8.00;76.44;99806.22;1801219;79;25556;-79
2022/05/24 03:05:21;;;;;;;16.82;10.35;;;;;;;8.02;76.80;99799.19;1801046;79;28042;-79
2022/05/24 03:10:34;;;;;;;14.15;9.08;;;;;;;8.06;76.68;99788.59;1800936;79;25133;-78
2022/05/24 03:15:48;;;;;;;13.68;9.98;;;;;;;8.08;76.76;99789.09;1800918;79;25567;-77
2022/05/24 03:18:18;;;;;;;12.93;10.50;;;;;;;8.09;76.81;99790.66;1801002;79;28193;-80
2022/05/24 03:20:45;;;;;;;12.80;10.58;;;;;;;8.11;77.01;99793.88;1800901;79;25687;-79
2022/05/24 03:23:13;;;;;;;11.53;10.25;;;;;;;8.13;77.47;99796.48;1800859;79;25603;-78
2022/05/24 03:25:40;;;;;;;13.53;10.85;;;;;;;8.15;77.40;99794.28;1800796;79;26168;-76
2022/05/24 03:28:07;;;;;;;17.50;12.13;;;;;;;8.18;77.59;99790.98;1800983;79;25623;-76
2022/05/24 03:30:41;;;;;;;15.78;10.58;;;;;;;8.21;77.61;99794.98;1800878;79;27461;-78
2022/05/24 03:33:08;;;;;;;12.45;9.88;;;;;;;8.25;77.68;99798.65;1800898;79;25546;-77
2022/05/24 03:35:35;;;;;;;15.40;9.85;;;;;;;8.29;77.83;99796.14;1801022;79;25454;-77
2022/05/24 03:38:01;;;;;;;14.55;10.75;;;;;;;8.32;77.98;99796.31;1800977;79;26213;-76
2022/05/24 03:40:28;;;;;;;13.60;11.38;;;;;;;8.35;78.04;99797.62;1801038;79;25614;-77
2022/05/24 03:42:54;;;;;;;18.90;10.38;;;;;;;8.40;78.04;99795.59;1801046;79;27630;-78
2022/05/24 03:45:23;;;;;;;12.82;10.30;;;;;;;8.46;78.12;99796.84;1797937;79;25535;-79
2022/05/24 03:47:49;;;;;;;14.50;11.00;;;;;;;8.50;78.30;99793.80;1792321;80;25189;-78
2022/05/24 03:50:17;;;;;;;16.80;12.18;;;;;;;8.54;78.46;99799.59;1768082;80;25563;-77
2022/05/24 03:52:43;;;;;;;13.18;10.75;;;;;;;8.60;78.74;99801.08;1792276;80;25605;-78
2022/05/24 03:55:10;;;;;;;18.80;11.85;;;;;;;8.66;78.81;99792.86;1792269;80;28249;-78
2022/05/24 04:00:24;;;;;;;14.20;11.48;;;;;;;8.79;79.24;99786.03;1792300;80;25435;-77
2022/05/24 04:02:50;;;;;;;15.58;12.73;;;;;;;8.88;79.30;99784.73;1792349;80;25544;-77
2022/05/24 04:05:17;;;;;;;13.58;11.75;;;;;;;8.94;79.33;99782.72;1792337;80;25400;-77
2022/05/24 04:07:44;;;;;;;20.02;12.15;;;;;;;9.03;79.49;99789.50;1792258;80;27463;-76
2022/05/24 04:10:14;;;;;;;17.98;13.15;;;;;;;9.10;79.49;99794.67;1792170;80;25898;-77
2022/05/24 04:12:41;;;;;;;16.80;12.55;;;;;;;9.20;79.84;99790.91;1792439;80;25615;-77
2022/05/24 04:15:08;;;;;;;19.35;11.65;;;;;;;9.30;79.78;99788.49;1792211;80;26167;-76
2022/05/24 04:17:35;;;;;;;18.73;12.13;;;;;;;9.43;79.93;99790.28;1792271;80;25401;-77
2022/05/24 04:20:01;;;;;;;16.32;12.63;;;;;;;9.52;79.83;99791.66;1792259;80;27468;-76
2022/05/24 04:22:27;;;;;;;15.35;11.75;;;;;;;9.63;79.77;99792.15;1792216;80;25872;-77
2022/05/24 04:24:53;;;;;;;15.18;12.93;;;;;;;9.73;79.92;99787.23;1792269;80;25580;-77
2022/05/24 04:27:22;;;;;;;16.42;12.43;;;;;;;9.85;79.78;99782.56;1792162;80;25640;-77
2022/05/24 04:29:51;;;;;;;14.30;11.60;;;;;;;9.98;79.78;99784.11;1792256;80;25410;-77
2022/05/24 04:32:16;;;;;;;15.95;12.58;;;;;;;10.08;79.97;99782.44;1792308;80;28142;-77
2022/05/24 04:34:43;;;;;;;15.75;13.58;;;;;;;10.19;79.73;99780.20;1792158;80;25636;-76
2022/05/24 04:37:09;;;;;;;15.65;13.13;;;;;;;10.28;79.65;99785.03;1792263;80;25457;-76
2022/05/24 04:39:36;;;;;;;18.85;13.75;;;;;;;10.40;79.45;99787.94;1792279;80;25521;-77
2022/05/24 04:44:57;;;;;;;16.07;14.00;;;;;;;10.64;79.08;99787.96;1792530;80;27545;-77
2022/05/24 04:47:28;;;;;;;18.67;14.35;;;;;;;10.78;79.25;99793.99;1800882;79;25641;-75
2022/05/24 04:49:58;;;;;;;17.25;14.33;;;;;;;10.92;79.12;99782.19;1800925;79;25556;-76
2022/05/24 04:52:28;;;;;;;18.95;14.47;;;;;;;11.06;79.02;99789.52;1801020;79;26017;-77
2022/05/24 04:54:55;;;;;;;17.32;13.20;;;;;;;11.19;78.76;99789.09;1800953;79;25487;-77
2022/05/24 04:57:22;;;;;;;16.73;13.85;;;;;;;11.33;78.50;99788.86;1801041;79;27583;-76
2022/05/24 04:59:49;;;;;;;20.37;14.43;;;;;;;11.45;78.28;99782.18;1800995;79;25551;-76
2022/05/24 05:02:17;;;;;;;17.77;14.38;;;;;;;11.57;78.02;99784.19;1800991;79;25455;-76
2022/05/24 05:04:43;;;;;;;16.73;14.45;;;;;;;11.71;77.74;99785.30;1800900;79;25622;-76
2022/05/24 05:07:12;;;;;;;18.52;14.90;;;;;;;11.84;77.55;99792.38;1801001;79;25598;-76
2022/05/24 05:09:38;;;;;;;19.67;15.40;;;;;;;11.96;77.47;99789.77;1801197;79;27639;-76
2022/05/24 05:12:26;;;;;;;18.50;13.83;;;;;;;12.09;77.33;99796.06;1800804;79;25386;-76
2022/05/24 05:14:53;;;;;;;17.07;15.25;;;;;;;12.22;76.93;99794.19;1800940;79;25605;-77
2022/05/24 05:17:19;;;;;;;20.45;16.57;;;;;;;12.38;76.26;99793.58;1800836;79;25659;-76
2022/05/24 05:19:47;;;;;;;19.55;15.25;;;;;;;12.50;75.89;99799.86;1800939;79;25626;-77
2022/05/24 05:22:14;;;;;;;19.55;16.05;;;;;;;12.62;75.49;99795.61;1800975;79;27547;-71
2022/05/24 05:24:41;;;;;;;17.82;14.70;;;;;;;12.75;74.80;99790.99;1800770;79;25396;-71
2022/05/24 05:27:07;;;;;;;16.93;15.05;;;;;;;12.87;74.04;99792.38;1800875;79;25594;-71
2022/05/24 05:32:26;;;;;;;16.97;13.03;;;;;;;13.13;73.87;99793.99;1800856;79;25578;-71
2022/05/24 05:34:51;;;;;;;16.55;12.07;;;;;;;13.29;73.50;99793.56;1800670;79;27538;-71
2022/05/24 05:37:17;;;;;;;14.23;12.68;;;;;;;13.48;72.75;99807.17;1800920;79;25502;-71
2022/05/24 05:39:44;;;;;;;11.88;10.55;;;;;;;13.62;72.29;99806.25;1800987;79;25583;-71
2022/05/24 05:42:10;;;;;;;11.30;10.10;;;;;;;13.77;72.00;99804.77;1800885;79;26137;-72
2022/05/24 05:44:38;;;;;;;13.78;9.68;;;;;;;13.92;71.33;99800.56;1800850;79;25557;-71
2022/05/24 05:47:06;;;;;;;12.90;10.68;;;;;;;14.07;71.27;99794.98;1794268;79;27453;-71
2022/05/24 05:49:33;;;;;;;12.20;8.95;;;;;;;14.23;70.18;99798.53;1792106;80;25416;-71
2022/05/24 05:51:59;;;;;;;11.03;9.25;;;;;;;14.37;69.63;99811.77;1792144;80;25406;-71
2022/05/24 05:54:26;;;;;;;12.80;9.28;;;;;;;14.48;69.07;99803.89;1792026;80;26254;-70
2022/05/24 05:56:53;;;;;;;13.53;8.10;;;;;;;14.60;68.34;99803.08;1792220;80;25581;-70
2022/05/24 05:59:19;;;;;;;8.78;7.92;;;;;;;14.72;67.65;99805.73;1792145;80;27676;-71
2022/05/24 06:01:45;;;;;;;12.37;7.92;;;;;;;14.85;67.56;99796.94;1792100;80;25822;-71
2022/05/24 06:04:12;;;;;;;9.55;8.20;;;;;;;14.99;67.00;99795.14;1792135;80;25608;-70
2022/05/24 06:06:45;;;;;;;9.70;7.85;;;;;;;15.10;65.82;99799.72;1792127;80;25532;-70
2022/05/24 06:09:12;;;;;;;9.30;8.08;;;;;;;15.22;64.69;99801.56;1792238;80;25605;-71
2022/05/24 06:11:41;;;;;;;9.63;7.15;;;;;;;15.35;64.20;99803.61;1792207;80;27667;-70
2022/05/24 06:14:10;;;;;;;10.98;7.30;;;;;;;15.49;63.81;99800.42;1789926;80;25684;-70
2022/05/24 06:16:38;;;;;;;8.03;7.22;;;;;;;15.61;63.87;99794.89;1791665;80;25564;-71
2022/05/24 06:19:06;;;;;;;10.70;6.25;;;;;;;15.78;62.69;99797.02;1791850;80;25622;-72
2022/05/24 06:21:33;;;;;;;9.98;6.37;;;;;;;15.94;61.72;99796.98;1791510;80;25678;-70
2022/05/24 06:24:03;;;;;;;12.00;6.15;;;;;;;16.09;61.79;99810.33;1791760;80;27496;-72
2022/05/24 06:26:32;;;;;;;8.30;5.62;;;;;;;16.22;61.75;99794.05;1790868;80;26732;-71
2022/05/24 06:29:01;;;;;;;6.62;5.80;;;;;;;16.43;61.83;99796.42;1791686;80;25585;-72
2022/05/24 06:31:28;;;;;;;8.18;5.55;;;;;;;16.61;60.42;99795.39;1791921;80;26062;-71
2022/05/24 06:33:55;;;;;;;8.50;5.35;;;;;;;16.76;60.38;99794.49;1791802;80;25559;-72
2022/05/24 06:36:21;;;;;;;8.73;4.20;;;;;;;16.91;59.84;99792.06;1791586;80;28072;-71
2022/05/24 06:38:47;;;;;;;7.62;4.58;;;;;;;17.07;59.23;99791.34;1791777;80;25622;-71
2022/05/24 06:41:14;;;;;;;11.48;4.35;;;;;;;17.23;58.54;99800.80;1791826;80;25404;-70
2022/05/24 06:43:40;;;;;;;4.90;4.30;;;;;;;17.39;57.90;99799.86;1767195;80;25674;-71
2022/05/24 06:46:09;;;;;;;5.97;4.05;;;;;;;17.60;57.36;99798.02;1791794;80;25561;-70
2022/05/24 06:48:42;;;;;;;3.75;3.22;;;;;;;17.79;57.34;99791.05;1791487;80;27469;-72
2022/05/24 06:51:13;;;;;;;7.20;3.40;;;;;;;17.96;56.51;99765.71;1774092;80;25339;-71
2022/05/24 06:53:41;;;;;;;7.58;3.58;;;;;;;18.14;56.08;99770.83;1786016;78;25681;-71
2022/05/24 06:56:08;;;;;;;5.85;3.72;;;;;;;18.34;55.39;99767.91;1791635;80;25664;-72
2022/05/24 06:58:36;;;;;;;8.18;3.50;;;;;;;18.39;52.75;99778.53;1791236;80;25638;-72
2022/05/24 07:03:53;;;;;;;4.72;2.87;;;;;;;18.60;51.40;99789.72;1786267;80;26326;-71
2022/05/24 07:06:19;;;;;;;7.08;3.10;;;;;;;18.64;52.51;99779.61;1786709;78;25610;-71
2022/05/24 07:08:48;;;;;;;4.28;3.08;;;;;;;18.69;51.95;99764.76;1782505;80;25583;-70
2022/05/24 07:11:17;;;;;;;3.37;2.85;;;;;;;18.73;50.30;99777.92;1791785;80;25693;-71
2022/05/24 07:13:44;;;;;;;;;;;;;;;18.67;50.65;99780.79;1794265;79;27466;-72
2022/05/24 07:16:10;;;;;;;6.10;2.70;;;;;;;18.73;50.89;99764.79;1791671;80;25857;-72
2022/05/24 07:18:38;;;;;;;3.50;2.47;;;;;;;18.82;50.83;99761.98;1791398;79;25644;-72
2022/05/24 07:21:06;;;;;;;4.25;2.77;;;;;;;18.98;49.27;99780.13;1788550;80;25625;-72
2022/05/24 07:23:37;;;;;;;6.53;2.60;;;;;;;19.08;49.08;99762.20;1785434;80;25734;-72
2022/05/24 07:26:12;;;;;;;5.70;2.63;;;;;;;19.23;48.93;99761.14;1785342;80;27692;-72
2022/05/24 07:28:39;;;;;;;5.85;3.05;;;;;;;19.33;48.01;99752.20;1785258;80;25612;-72
2022/05/24 07:31:07;;;;;;;4.20;2.55;;;;;;;19.60;47.72;99751.98;1785932;80;25391;-72
2022/05/24 07:33:34;;;;;;;4.95;2.70;;;;;;;19.77;47.75;99743.09;1785362;80;26382;-72
2022/05/24 07:36:04;;;;;;;3.70;2.10;;;;;;;20.01;46.90;99753.20;1785845;80;25472;-72
2022/05/24 07:38:31;;;;;;;3.95;2.40;;;;;;;20.26;47.39;99746.99;1785667;80;27515;-72
2022/05/24 07:46:27;;;;;;;6.65;3.00;;;;;;;20.89;44.07;99762.06;1787848;79;26356;-72
2022/05/24 07:48:53;;;;;;;6.60;2.50;;;;;;;20.96;42.51;99755.78;1796712;79;25803;-72
2022/05/24 07:51:19;;;;;;;4.37;2.72;;;;;;;20.95;42.30;99760.30;1797027;79;28112;-73
2022/05/24 07:53:46;;;;;;;4.25;2.50;;;;;;;21.06;43.70;99766.56;1767795;79;25572;-72
2022/05/24 07:56:15;;;;;;;4.80;2.70;;;;;;;21.22;42.35;99760.68;1796796;79;25681;-72
2022/05/24 07:58:40;;;;;;;5.07;2.93;;;;;;;21.33;42.74;99760.06;1768322;79;25632;-72
2022/05/24 08:01:07;;;;;;;5.10;3.05;;;;;;;21.43;42.38;99782.64;1796982;79;25536;-72
2022/05/24 08:03:33;;;;;;;4.22;2.67;;;;;;;21.47;42.13;99751.05;1796091;79;27517;-72
2022/05/24 08:05:59;;;;;;;4.33;2.40;;;;;;;21.71;41.63;99770.63;1794713;79;25708;-73
2022/05/24 08:08:26;;;;;;;5.55;2.92;;;;;;;21.91;40.47;99757.20;1795788;79;25660;-72
2022/05/24 08:10:52;;;;;;;4.80;2.60;;;;;;;22.00;40.49;99754.82;1795755;79;25663;-72
2022/05/24 08:13:20;;;;;;;4.33;2.72;;;;;;;22.11;40.44;99744.52;1795727;79;25774;-72
2022/05/24 08:15:52;;;;;;;4.58;2.55;;;;;;;22.24;40.65;99745.47;1796101;79;27444;-72
2022/05/24 08:18:20;;;;;;;4.08;2.50;;;;;;;22.46;40.54;99744.75;1796103;79;25749;-72
2022/05/24 08:20:47;;;;;;;5.97;2.60;;;;;;;22.72;39.28;99744.19;1768291;79;25631;-71
2022/05/24 08:23:14;;;;;;;5.40;2.95;;;;;;;22.91;37.72;99755.87;1797148;79;25533;-71
2022/05/24 08:25:41;;;;;;;6.08;3.00;;;;;;;22.85;38.25;99762.42;1797343;79;25547;-72
2022/05/24 08:28:08;;;;;;;5.55;2.60;;;;;;;22.97;38.98;99742.42;1797232;79;27425;-72
2022/05/24 08:30:37;;;;;;;4.83;2.70;;;;;;;23.13;38.04;99746.25;1797147;79;25535;-72
2022/05/24 08:33:04;;;;;;;5.97;2.90;;;;;;;23.31;38.05;99750.23;1797283;79;25372;-72
2022/05/24 08:35:34;;;;;;;4.40;2.55;;;;;;;23.54;37.75;99748.81;1796294;79;25568;-72
2022/05/24 08:38:04;;;;;;;3.47;2.27;;;;;;;23.63;37.24;99744.98;1796424;79;25609;-71
2022/05/24 08:40:31;;;;;;;4.75;2.52;;;;;;;23.78;36.69;99746.96;1797228;79;27683;-71
2022/05/24 08:43:35;;;;;;;4.40;2.50;;;;;;;23.83;36.09;99752.06;1797185;79;25633;-72
2022/05/24 08:49:08;;;;;;;3.83;2.92;;;;;;;23.48;36.61;99754.61;1797181;79;25573;-71
2022/05/24 08:51:45;;;;;;;4.92;2.95;;;;;;;23.50;35.80;99759.12;1797276;79;25606;-71
2022/05/24 08:54:16;;;;;;;4.28;2.50;;;;;;;23.37;35.03;99753.32;1797192;79;28173;-71
2022/05/24 08:56:59;;;;;;;2.47;2.27;;;;;;;23.33;35.62;99756.72;1797441;79;25582;-72
2022/05/24 08:59:30;;;;;;;4.03;2.47;;;;;;;23.36;35.45;99758.67;1796701;79;25436;-71
2022/05/24 09:01:59;;;;;;;9.08;2.40;;;;;;;23.10;35.35;99753.98;1768321;79;25511;-70
2022/05/24 09:04:29;;;;;;;5.33;2.50;;;;;;;22.97;35.33;99761.72;1797424;79;25616;-70
2022/05/24 09:07:01;;;;;;;;;;;;;;;22.78;35.20;99767.19;1799927;79;27503;-70
2022/05/24 09:09:53;;;;;;;3.85;2.40;;;;;;;22.60;36.19;99757.08;1797233;79;25549;-70
2022/05/24 09:12:34;;;;;;;4.42;2.33;;;;;;;22.68;36.55;99761.94;1796933;79;25593;-71
2022/05/24 09:15:18;;;;;;;3.75;2.40;;;;;;;22.64;36.60;99751.54;1797284;79;25484;-77
2022/05/24 09:17:56;;;;;;;5.08;2.67;;;;;;;22.55;36.31;99756.91;1788851;79;25437;-78
2022/05/24 09:20:36;;;;;;;6.37;2.58;;;;;;;22.51;36.34;99753.40;1795146;79;27512;-76
2022/05/24 09:23:39;;;;;;;6.10;2.92;;;;;;;22.55;36.65;99754.15;1797251;79;25466;-78
2022/05/24 09:26:10;;;;;;;5.15;2.70;;;;;;;22.56;36.10;99769.51;1796050;79;25656;-76
2022/05/24 09:28:58;;;;;;;6.15;2.45;;;;;;;22.56;36.58;99743.93;1797012;79;25623;-79
2022/05/24 09:31:38;;;;;;;3.53;2.70;;;;;;;22.84;36.44;99738.02;1797583;79;26297;-79
2022/05/24 09:34:19;;;;;;;4.65;3.08;;;;;;;23.00;35.73;99745.75;1797369;79;27452;-76
2022/05/24 09:36:59;;;;;;;6.28;2.58;;;;;;;23.13;35.70;99748.23;1795219;79;25592;-78
2022/05/24 09:39:42;;;;;;;7.12;2.40;;;;;;;23.23;35.40;99743.81;1797152;79;25640;-78
2022/05/24 09:42:30;;;;;;;8.30;2.27;;;;;;;23.44;35.49;99740.05;1793539;79;25800;-77
2022/05/24 09:45:21;;;;;;;7.67;2.62;;;;;;;23.58;35.13;99742.67;1797334;79;25388;-75
2022/05/24 09:47:55;;;;;;;6.03;2.50;;;;;;;23.66;35.01;99735.08;1797566;79;27477;-76
2022/05/24 09:50:33;;;;;;;5.75;2.35;;;;;;;23.85;34.42;99738.64;1797981;79;25885;-76
2022/05/24 09:53:12;;;;;;;4.25;2.55;;;;;;;23.94;34.77;99734.58;1769650;79;25279;-78
2022/05/24 09:55:55;;;;;;;3.95;2.62;;;;;;;24.01;34.02;99735.89;1798101;79;25481;-78
2022/05/24 09:58:39;;;;;;;4.97;2.30;;;;;;;24.17;34.29;99725.00;1797908;79;25677;-79
2022/05/24 10:01:49;;;;;;;5.45;2.25;;;;;;;24.41;34.10;99712.02;1799099;79;27469;-78
2022/05/24 10:04:27;;;;;;;3.47;2.10;;;;;;;24.69;32.72;99729.42;1675821;85;25660;-76
2022/05/24 10:07:25;;;;;;;3.62;2.60;;;;;;;24.80;33.09;99738.31;1676987;83;25332;-78
2022/05/24 10:10:16;;;;;;;4.62;2.40;;;;;;;25.02;33.75;99731.05;1674558;85;25714;-75
2022/05/24 10:13:07;;;;;;;4.30;2.22;;;;;;;25.25;32.85;99722.55;1674800;85;25699;-77
2022/05/24 10:16:20;;;;;;;2.37;2.17;;;;;;;25.22;31.78;99715.88;1674752;85;27482;-75
2022/05/24 10:18:58;;;;;;;4.10;2.50;;;;;;;25.13;32.79;99710.10;1675308;85;25696;-74
2022/05/24 10:21:44;;;;;;;3.27;2.22;;;;;;;25.04;30.86;99732.79;1676492;85;25751;-77
2022/05/24 10:24:31;;;;;;;3.60;1.82;;;;;;;24.71;32.21;99710.42;1677409;85;25888;-77
2022/05/24 10:27:13;;;;;;;2.40;2.20;;;;;;;24.63;31.72;99707.59;1654702;85;25720;-76
2022/05/24 10:30:19;;;;;;;6.45;2.70;;;;;;;24.53;32.35;99714.81;1677159;83;27457;-77
2022/05/24 10:39:17;;;;;;;4.05;2.30;;;;;;;24.66;31.44;99712.28;1677600;83;25452;-76
2022/05/24 10:41:55;;;;;;;5.65;2.87;;;;;;;24.49;32.51;99707.80;1745913;79;25453;-78
2022/05/24 10:44:40;;;;;;;4.47;2.40;;;;;;;24.67;33.20;99713.05;1800226;79;27517;-75
2022/05/24 10:47:27;;;;;;;3.62;2.20;;;;;;;24.73;31.95;99700.33;1799059;79;25260;-76
2022/05/24 10:50:05;;;;;;;6.30;2.00;;;;;;;24.58;32.21;99697.00;1786662;80;25575;-74
2022/05/24 10:53:00;;;;;;;5.62;2.30;;;;;;;24.46;32.45;99706.63;1726065;83;25544;-77
2022/05/24 10:55:38;;;;;;;5.33;2.67;;;;;;;24.23;31.88;99702.63;1669686;85;26463;-77
2022/05/24 10:58:11;;;;;;;3.85;2.45;;;;;;;23.88;32.47;99693.45;1668901;84;28372;-77
2022/05/24 11:00:58;;;;;;;2.20;2.00;;;;;;;23.66;32.69;99690.31;1669427;85;25737;-78
2022/05/24 11:03:32;;;;;;;3.22;2.20;;;;;;;23.48;32.92;99680.09;1669317;84;25720;-79
2022/05/24 11:06:09;;;;;;;4.92;2.50;;;;;;;23.38;33.19;99684.53;1669842;86;25649;-79
2022/05/24 11:08:41;;;;;;;2.40;2.20;;;;;;;23.19;32.76;99687.87;1669965;86;25550;-79
2022/05/24 11:11:51;;;;;;;4.40;2.15;;;;;;;23.05;32.93;99684.64;1669979;84;28191;-78
2022/05/24 11:15:02;;;;;;;3.85;2.60;;;;;;;22.84;32.08;99705.70;1670151;86;25764;-80
2022/05/24 11:17:36;;;;;;;6.08;2.60;;;;;;;22.48;32.84;99690.05;1670807;85;25385;-81
2022/05/24 11:20:05;;;;;;;2.85;2.17;;;;;;;22.37;33.16;99693.66;1669998;85;25647;-80
2022/05/24 11:22:43;;;;;;;5.42;2.72;;;;;;;22.25;33.40;99694.08;1670585;86;25369;-79
2022/05/24 11:25:27;;;;;;;5.75;2.55;;;;;;;22.25;33.54;99691.33;1667917;85;28107;-80
2022/05/24 11:28:24;;;;;;;2.52;2.30;;;;;;;22.32;33.64;99691.91;1646530;86;25777;-78
2022/05/24 11:30:53;;;;;;;3.75;2.58;;;;;;;22.33;33.85;99697.02;1724209;83;25694;-79
2022/05/24 11:33:42;;;;;;;3.00;2.50;;;;;;;22.40;33.80;99707.21;1769561;80;25607;-80
2022/05/24 11:36:48;;;;;;;3.72;2.70;;;;;;;22.47;33.07;99682.96;1786620;80;25644;-80
2022/05/24 11:39:29;;;;;;;3.25;2.50;;;;;;;22.52;33.45;99699.06;1786306;80;27530;-79
2022/05/24 11:42:29;;;;;;;4.35;2.42;;;;;;;22.64;33.74;99699.17;1668755;85;25733;-79
2022/05/24 11:45:20;;;;;;;2.85;2.37;;;;;;;22.63;33.59;99705.29;1669059;86;25505;-79
2022/05/24 11:47:58;;;;;;;3.52;2.50;;;;;;;22.46;33.45;99699.29;1669605;85;25849;-80
2022/05/24 11:50:45;;;;;;;2.83;2.50;;;;;;;22.23;33.45;99693.70;1672720;85;25846;-80
2022/05/24 11:53:24;;;;;;;4.50;2.52;;;;;;;22.06;33.75;99689.09;1672678;85;28032;-79
2022/05/24 11:56:10;;;;;;;3.37;2.65;;;;;;;21.90;33.99;99699.21;1673887;85;25707;-81
2022/05/24 11:58:44;;;;;;;4.53;2.47;;;;;;;21.76;34.26;99687.08;1655076;85;25389;-81
2022/05/24 12:01:27;;;;;;;12.35;3.20;;;;;;;21.65;34.37;99709.72;1658918;86;25691;-80
2022/05/24 12:10:33;;;;;;;4.17;2.58;;;;;;;21.42;35.15;99693.66;1588244;88;25322;-79
2022/05/24 12:13:40;;;;;;;7.37;2.72;;;;;;;21.47;35.18;99705.66;1578665;90;25710;-79
2022/05/24 12:16:15;;;;;;;5.08;2.60;;;;;;;21.47;34.99;99707.03;1572153;90;25890;-82
2022/05/24 12:18:56;;;;;;;4.87;2.52;;;;;;;21.44;35.05;99694.81;1530411;90;25366;-80
2022/05/24 12:22:00;;;;;;;4.50;2.47;;;;;;;21.51;34.75;99707.02;1564388;90;27928;-80
2022/05/24 12:24:57;;;;;;;4.17;2.40;;;;;;;21.58;35.36;99699.52;1626629;88;25327;-80
2022/05/24 12:27:50;;;;;;;4.35;2.58;;;;;;;21.77;35.27;99692.76;1619975;88;25788;-80
2022/05/24 12:30:39;;;;;;;4.62;2.27;;;;;;;21.95;34.93;99696.81;1619827;88;25856;-81
2022/05/24 12:33:30;;;;;;;3.92;2.90;;;;;;;22.07;34.49;99697.56;1620675;88;25474;-80
2022/05/24 12:36:46;;;;;;;3.87;2.40;;;;;;;22.18;35.20;99701.80;1561046;91;27121;-81
2022/05/24 12:39:17;;;;;;;3.83;2.40;;;;;;;22.41;35.22;99694.21;1530053;93;25396;-69
2022/05/24 12:42:00;;;;;;;3.75;2.45;;;;;;;22.63;35.11;99696.22;1516436;94;25810;-70
2022/05/24 12:44:52;;;;;;;5.22;2.47;;;;;;;22.70;34.48;99693.42;1476096;96;26415;-71